createdAt,value
2022-11-03T00:00:35.487Z,0.00
2022-11-03T00:01:35.520Z,0.00
2022-11-03T00:02:35.493Z,0.00
2022-11-03T00:03:35.458Z,0.00
2022-11-03T00:04:35.465Z,0.00
2022-11-03T00:05:35.434Z,0.00
2022-11-03T00:06:35.432Z,0.00
2022-11-03T00:07:35.418Z,0.00
2022-11-03T00:08:35.409Z,0.00
2022-11-03T00:09:35.398Z,0.00
2022-11-03T00:10:35.388Z,0.00
2022-11-03T00:11:35.378Z,0.00
2022-11-03T00:12:35.370Z,0.00
2022-11-03T00:13:35.360Z,0.00
2022-11-03T00:14:35.347Z,0.00
2022-11-03T00:15:35.338Z,0.00
2022-11-03T00:16:35.329Z,0.00
2022-11-03T00:17:35.344Z,0.00
2022-11-03T00:18:35.309Z,0.00
2022-11-03T00:19:35.299Z,0.00
2022-11-03T00:20:35.288Z,0.00
2022-11-03T00:21:35.278Z,0.00
2022-11-03T00:22:35.271Z,0.00
2022-11-03T00:23:35.258Z,0.00
2022-11-03T00:24:35.256Z,0.00
2022-11-03T00:25:35.238Z,0.00
2022-11-03T00:26:35.231Z,0.00
2022-11-03T00:27:35.900Z,0.00
2022-11-03T00:28:35.208Z,0.00
2022-11-03T00:29:35.200Z,0.00
2022-11-03T00:30:35.195Z,0.00
2022-11-03T00:31:35.179Z,0.00
2022-11-03T00:32:35.170Z,0.00
2022-11-03T00:33:35.160Z,0.00
2022-11-03T00:34:35.149Z,0.00
2022-11-03T00:35:35.145Z,0.00
2022-11-03T00:36:35.128Z,0.00
2022-11-03T00:37:35.116Z,0.00
2022-11-03T00:38:35.108Z,0.00
2022-11-03T00:39:35.098Z,0.00
2022-11-03T00:40:35.088Z,0.00
2022-11-03T00:41:35.076Z,0.00
2022-11-03T00:42:35.072Z,0.00
2022-11-03T00:43:35.056Z,0.00
2022-11-03T00:44:35.050Z,0.00
2022-11-03T00:45:35.037Z,0.00
2022-11-03T00:46:35.170Z,0.00
2022-11-03T00:47:35.013Z,0.00
2022-11-03T00:48:35.006Z,0.00
2022-11-03T00:49:34.997Z,0.00
2022-11-03T00:50:35.016Z,0.00
2022-11-03T00:51:35.026Z,0.00
2022-11-03T00:52:34.967Z,0.00
2022-11-03T00:53:34.957Z,0.00
2022-11-03T00:54:34.945Z,0.00
2022-11-03T00:55:34.940Z,0.00
2022-11-03T00:56:34.924Z,0.00
2022-11-03T00:57:34.913Z,0.00
2022-11-03T00:58:34.906Z,0.00
2022-11-03T00:59:34.897Z,0.00
2022-11-03T01:00:34.883Z,0.00
2022-11-03T01:01:37.162Z,0.00
2022-11-03T01:02:34.972Z,0.00
2022-11-03T01:03:34.857Z,0.00
2022-11-03T01:04:34.849Z,0.00
2022-11-03T01:05:34.831Z,0.00
2022-11-03T01:06:34.826Z,0.00
2022-11-03T01:07:34.815Z,0.00
2022-11-03T01:08:34.803Z,0.00
2022-11-03T01:09:34.797Z,0.00
2022-11-03T01:10:34.801Z,0.00
2022-11-03T01:11:34.773Z,0.00
2022-11-03T01:12:34.761Z,0.00
2022-11-03T01:13:34.753Z,0.00
2022-11-03T01:14:34.739Z,0.00
2022-11-03T01:15:34.733Z,0.00
2022-11-03T01:16:34.721Z,0.00
2022-11-03T01:17:34.722Z,0.00
2022-11-03T01:18:34.706Z,0.00
2022-11-03T01:19:34.689Z,0.00
2022-11-03T01:20:34.679Z,0.00
2022-11-03T01:21:34.673Z,0.00
2022-11-03T01:22:34.657Z,0.00
2022-11-03T01:23:34.648Z,0.00
2022-11-03T01:24:34.639Z,0.00
2022-11-03T01:25:34.633Z,0.00
2022-11-03T01:26:34.615Z,0.00
2022-11-03T01:27:34.609Z,0.00
2022-11-03T01:28:34.599Z,0.00
2022-11-03T01:29:34.587Z,0.00
2022-11-03T01:30:34.576Z,0.00
2022-11-03T01:31:34.568Z,0.00
2022-11-03T01:32:34.561Z,0.00
2022-11-03T01:33:34.547Z,0.00
2022-11-03T01:34:34.538Z,0.00
2022-11-03T01:35:34.528Z,0.00
2022-11-03T01:36:34.516Z,0.00
2022-11-03T01:37:34.511Z,0.00
2022-11-03T01:38:34.496Z,0.00
2022-11-03T01:39:34.489Z,0.00
2022-11-03T01:40:34.475Z,0.00
2022-11-03T01:41:34.462Z,0.00
2022-11-03T01:42:34.457Z,0.00
2022-11-03T01:43:34.445Z,0.00
2022-11-03T01:44:34.439Z,0.00
2022-11-03T01:45:34.423Z,0.00
2022-11-03T01:46:34.416Z,0.00
2022-11-03T01:47:34.403Z,0.00
2022-11-03T01:48:34.393Z,0.00
2022-11-03T01:49:34.380Z,0.00
2022-11-03T01:50:34.372Z,0.00
2022-11-03T01:51:34.362Z,0.00
2022-11-03T01:52:34.351Z,0.00
2022-11-03T01:53:34.343Z,0.00
2022-11-03T01:54:34.330Z,0.00
2022-11-03T01:55:34.318Z,0.00
2022-11-03T01:56:34.308Z,0.00
2022-11-03T01:57:34.300Z,0.00
2022-11-03T01:58:34.293Z,0.00
2022-11-03T01:59:34.277Z,0.00
2022-11-03T02:00:34.273Z,0.00
2022-11-03T02:01:34.339Z,0.00
2022-11-03T02:02:34.328Z,0.00
2022-11-03T02:03:34.239Z,0.00
2022-11-03T02:04:34.222Z,0.00
2022-11-03T02:05:34.218Z,0.00
2022-11-03T02:06:34.205Z,0.00
2022-11-03T02:07:34.199Z,0.00
2022-11-03T02:08:34.185Z,0.00
2022-11-03T02:09:34.176Z,0.00
2022-11-03T02:10:34.164Z,0.00
2022-11-03T02:11:34.150Z,0.00
2022-11-03T02:12:34.143Z,0.00
2022-11-03T02:13:34.134Z,0.00
2022-11-03T02:14:34.125Z,0.00
2022-11-03T02:15:34.113Z,0.00
2022-11-03T02:16:34.100Z,0.00
2022-11-03T02:17:34.091Z,0.00
2022-11-03T02:18:34.082Z,0.00
2022-11-03T02:19:34.072Z,0.00
2022-11-03T02:20:34.060Z,0.00
2022-11-03T02:21:34.048Z,0.00
2022-11-03T02:22:34.045Z,0.00
2022-11-03T02:23:34.031Z,0.00
2022-11-03T02:24:34.016Z,0.00
2022-11-03T02:25:34.028Z,0.00
2022-11-03T02:26:33.997Z,0.00
2022-11-03T02:27:33.987Z,0.00
2022-11-03T02:28:33.975Z,0.00
2022-11-03T02:29:33.966Z,0.00
2022-11-03T02:30:33.955Z,0.00
2022-11-03T02:31:33.945Z,0.00
2022-11-03T02:32:33.933Z,0.00
2022-11-03T02:33:33.922Z,0.00
2022-11-03T02:34:33.914Z,0.00
2022-11-03T02:35:33.904Z,0.00
2022-11-03T02:36:33.890Z,0.00
2022-11-03T02:37:33.882Z,0.00
2022-11-03T02:38:33.874Z,0.00
2022-11-03T02:39:33.868Z,0.00
2022-11-03T02:40:33.856Z,0.00
2022-11-03T02:41:33.841Z,0.00
2022-11-03T02:42:33.829Z,0.00
2022-11-03T02:43:33.826Z,0.00
2022-11-03T02:44:33.809Z,0.00
2022-11-03T02:45:33.799Z,0.00
2022-11-03T02:46:33.792Z,0.00
2022-11-03T02:47:33.779Z,0.00
2022-11-03T02:48:33.769Z,0.00
2022-11-03T02:49:33.755Z,0.00
2022-11-03T02:50:33.762Z,0.00
2022-11-03T02:51:33.759Z,0.00
2022-11-03T02:52:33.725Z,0.00
2022-11-03T02:53:33.716Z,0.00
2022-11-03T02:54:33.706Z,0.00
2022-11-03T02:55:33.694Z,0.00
2022-11-03T02:56:33.683Z,0.00
2022-11-03T02:57:33.673Z,0.00
2022-11-03T02:58:33.665Z,0.00
2022-11-03T02:59:33.652Z,0.00
2022-11-03T03:00:33.643Z,0.00
2022-11-03T03:01:33.697Z,0.00
2022-11-03T03:02:33.660Z,0.00
2022-11-03T03:03:33.611Z,0.00
2022-11-03T03:04:33.597Z,0.00
2022-11-03T03:05:33.591Z,0.00
2022-11-03T03:06:33.581Z,0.00
2022-11-03T03:07:33.573Z,0.00
2022-11-03T03:08:33.558Z,0.00
2022-11-03T03:09:33.548Z,0.00
2022-11-03T03:10:33.540Z,0.00
2022-11-03T03:11:33.529Z,0.00
2022-11-03T03:12:33.522Z,0.00
2022-11-03T03:13:33.508Z,0.00
2022-11-03T03:14:33.495Z,0.00
2022-11-03T03:15:33.493Z,0.00
2022-11-03T03:16:33.474Z,0.00
2022-11-03T03:17:33.465Z,0.00
2022-11-03T03:18:33.457Z,0.00
2022-11-03T03:19:33.447Z,0.00
2022-11-03T03:20:33.438Z,0.00
2022-11-03T03:21:33.424Z,0.00
2022-11-03T03:22:33.417Z,0.00
2022-11-03T03:23:33.409Z,0.00
2022-11-03T03:24:33.393Z,0.00
2022-11-03T03:25:33.387Z,0.00
2022-11-03T03:26:33.376Z,0.00
2022-11-03T03:27:33.360Z,0.00
2022-11-03T03:28:33.353Z,0.00
2022-11-03T03:29:33.340Z,0.00
2022-11-03T03:30:33.332Z,0.00
2022-11-03T03:31:33.320Z,0.00
2022-11-03T03:32:33.312Z,0.00
2022-11-03T03:33:33.301Z,0.00
2022-11-03T03:34:35.986Z,0.00
2022-11-03T03:35:33.280Z,0.00
2022-11-03T03:36:33.271Z,0.00
2022-11-03T03:37:33.260Z,0.00
2022-11-03T03:38:33.252Z,0.00
2022-11-03T03:39:33.239Z,0.00
2022-11-03T03:40:33.229Z,0.00
2022-11-03T03:41:33.219Z,0.00
2022-11-03T03:42:33.211Z,0.00
2022-11-03T03:43:33.201Z,0.00
2022-11-03T03:44:33.184Z,0.00
2022-11-03T03:45:33.176Z,0.00
2022-11-03T03:46:33.168Z,0.00
2022-11-03T03:47:33.157Z,0.00
2022-11-03T03:48:33.154Z,0.00
2022-11-03T03:49:33.137Z,0.00
2022-11-03T03:50:33.127Z,0.00
2022-11-03T03:51:33.120Z,0.00
2022-11-03T03:52:33.110Z,0.00
2022-11-03T03:53:33.095Z,0.00
2022-11-03T03:54:33.085Z,0.00
2022-11-03T03:55:33.079Z,0.00
2022-11-03T03:56:33.090Z,0.00
2022-11-03T03:57:33.055Z,0.00
2022-11-03T03:58:33.044Z,0.00
2022-11-03T03:59:33.036Z,0.00
2022-11-03T04:00:33.025Z,0.00
2022-11-03T04:01:33.076Z,0.00
2022-11-03T04:02:33.105Z,0.00
2022-11-03T04:03:32.993Z,0.00
2022-11-03T04:04:32.983Z,0.00
2022-11-03T04:05:32.973Z,0.00
2022-11-03T04:06:32.959Z,0.00
2022-11-03T04:07:32.956Z,0.00
2022-11-03T04:08:32.943Z,0.00
2022-11-03T04:09:32.935Z,0.00
2022-11-03T04:10:32.931Z,0.00
2022-11-03T04:11:32.917Z,0.00
2022-11-03T04:12:32.900Z,0.00
2022-11-03T04:13:32.892Z,0.00
2022-11-03T04:14:32.884Z,0.00
2022-11-03T04:15:32.890Z,0.00
2022-11-03T04:16:32.860Z,0.00
2022-11-03T04:17:32.849Z,0.00
2022-11-03T04:18:32.840Z,0.00
2022-11-03T04:19:32.832Z,0.00
2022-11-03T04:20:32.817Z,0.00
2022-11-03T04:21:32.809Z,0.00
2022-11-03T04:22:32.803Z,0.00
2022-11-03T04:23:32.791Z,0.00
2022-11-03T04:24:32.779Z,0.00
2022-11-03T04:25:32.770Z,0.00
2022-11-03T04:26:32.759Z,0.00
2022-11-03T04:27:32.749Z,0.00
2022-11-03T04:28:32.739Z,0.00
2022-11-03T04:29:32.728Z,0.00
2022-11-03T04:30:32.718Z,0.00
2022-11-03T04:31:32.709Z,0.00
2022-11-03T04:32:32.695Z,0.00
2022-11-03T04:33:32.687Z,0.00
2022-11-03T04:34:32.676Z,0.00
2022-11-03T04:35:32.667Z,0.00
2022-11-03T04:36:32.654Z,0.00
2022-11-03T04:37:32.645Z,0.00
2022-11-03T04:38:32.633Z,0.00
2022-11-03T04:39:32.634Z,0.00
2022-11-03T04:40:32.610Z,0.00
2022-11-03T04:41:32.603Z,0.00
2022-11-03T04:42:32.591Z,0.00
2022-11-03T04:43:32.582Z,0.00
2022-11-03T04:44:32.571Z,0.00
2022-11-03T04:45:32.573Z,0.00
2022-11-03T04:46:32.550Z,0.00
2022-11-03T04:47:32.539Z,0.00
2022-11-03T04:48:32.528Z,0.00
2022-11-03T04:49:32.518Z,0.00
2022-11-03T04:50:32.508Z,0.00
2022-11-03T04:51:32.498Z,0.00
2022-11-03T04:52:32.486Z,0.00
2022-11-03T04:53:32.479Z,0.00
2022-11-03T04:54:32.466Z,0.00
2022-11-03T04:55:32.457Z,0.00
2022-11-03T04:56:32.445Z,0.00
2022-11-03T04:57:32.432Z,0.00
2022-11-03T04:58:32.430Z,0.00
2022-11-03T04:59:32.417Z,0.00
2022-11-03T05:00:32.403Z,0.00
2022-11-03T05:01:32.575Z,0.00
2022-11-03T05:02:32.384Z,0.00
2022-11-03T05:03:32.372Z,0.00
2022-11-03T05:04:32.361Z,0.00
2022-11-03T05:05:32.368Z,0.00
2022-11-03T05:06:32.341Z,0.00
2022-11-03T05:07:32.331Z,0.00
2022-11-03T05:08:32.318Z,0.00
2022-11-03T05:09:32.306Z,0.00
2022-11-03T05:10:32.299Z,0.00
2022-11-03T05:11:32.288Z,0.00
2022-11-03T05:12:32.277Z,0.00
2022-11-03T05:13:32.272Z,0.00
2022-11-03T05:14:32.260Z,0.00
2022-11-03T05:15:32.245Z,0.00
2022-11-03T05:16:32.234Z,0.00
2022-11-03T05:17:32.224Z,0.00
2022-11-03T05:18:32.214Z,0.00
2022-11-03T05:19:32.206Z,0.00
2022-11-03T05:20:35.945Z,0.00
2022-11-03T05:21:32.181Z,0.00
2022-11-03T05:22:32.169Z,0.00
2022-11-03T05:23:32.161Z,0.00
2022-11-03T05:24:32.191Z,0.00
2022-11-03T05:25:32.139Z,0.00
2022-11-03T05:26:32.151Z,0.00
2022-11-03T05:27:32.119Z,0.00
2022-11-03T05:28:32.105Z,0.00
2022-11-03T05:29:32.104Z,0.00
2022-11-03T05:30:32.088Z,0.00
2022-11-03T05:31:32.079Z,0.00
2022-11-03T05:32:32.066Z,0.00
2022-11-03T05:33:32.057Z,4.00
2022-11-03T05:34:32.046Z,4.00
2022-11-03T05:35:32.038Z,0.00
2022-11-03T05:36:32.025Z,0.00
2022-11-03T05:37:32.017Z,4.00
2022-11-03T05:38:32.004Z,4.00
2022-11-03T05:39:31.992Z,0.00
2022-11-03T05:40:31.982Z,4.00
2022-11-03T05:41:31.972Z,4.00
2022-11-03T05:42:31.958Z,8.00
2022-11-03T05:43:31.948Z,8.00
2022-11-03T05:44:31.939Z,8.00
2022-11-03T05:45:31.933Z,8.00
2022-11-03T05:46:31.921Z,8.00
2022-11-03T05:47:31.908Z,12.00
2022-11-03T05:48:31.899Z,16.00
2022-11-03T05:49:31.894Z,16.00
2022-11-03T05:50:31.875Z,20.00
2022-11-03T05:51:31.871Z,20.00
2022-11-03T05:52:31.858Z,24.00
2022-11-03T05:53:31.847Z,28.00
2022-11-03T05:54:31.839Z,32.00
2022-11-03T05:55:31.825Z,36.00
2022-11-03T05:56:31.813Z,40.00
2022-11-03T05:57:31.804Z,44.00
2022-11-03T05:58:31.794Z,52.00
2022-11-03T05:59:31.784Z,56.00
2022-11-03T06:00:31.773Z,64.00
2022-11-03T06:01:31.804Z,68.00
2022-11-03T06:02:31.786Z,76.00
2022-11-03T06:03:31.743Z,84.00
2022-11-03T06:04:31.728Z,88.00
2022-11-03T06:05:31.720Z,96.00
2022-11-03T06:06:32.598Z,100.00
2022-11-03T06:07:31.701Z,108.00
2022-11-03T06:08:31.693Z,120.00
2022-11-03T06:09:31.677Z,128.00
2022-11-03T06:10:31.668Z,132.00
2022-11-03T06:11:31.657Z,140.00
2022-11-03T06:12:31.643Z,148.00
2022-11-03T06:13:31.636Z,160.00
2022-11-03T06:14:31.625Z,168.00
2022-11-03T06:15:31.613Z,176.00
2022-11-03T06:16:31.605Z,184.00
2022-11-03T06:17:31.591Z,196.00
2022-11-03T06:18:31.580Z,208.00
2022-11-03T06:19:31.571Z,220.00
2022-11-03T06:20:31.562Z,236.00
2022-11-03T06:21:31.551Z,252.00
2022-11-03T06:22:31.543Z,272.00
2022-11-03T06:23:31.538Z,292.00
2022-11-03T06:24:31.518Z,312.00
2022-11-03T06:25:31.509Z,332.00
2022-11-03T06:26:31.502Z,352.00
2022-11-03T06:27:31.487Z,372.00
2022-11-03T06:28:31.477Z,392.00
2022-11-03T06:29:31.465Z,412.00
2022-11-03T06:30:31.545Z,432.00
2022-11-03T06:31:31.446Z,452.00
2022-11-03T06:32:31.436Z,468.00
2022-11-03T06:33:31.435Z,484.00
2022-11-03T06:34:31.422Z,496.00
2022-11-03T06:35:31.404Z,512.00
2022-11-03T06:36:31.392Z,524.00
2022-11-03T06:37:31.381Z,540.00
2022-11-03T06:38:31.387Z,552.00
2022-11-03T06:39:31.364Z,568.00
2022-11-03T06:40:31.353Z,584.00
2022-11-03T06:41:31.347Z,600.00
2022-11-03T06:42:32.229Z,616.00
2022-11-03T06:43:31.330Z,628.00
2022-11-03T06:44:31.311Z,648.00
2022-11-03T06:45:31.302Z,668.00
2022-11-03T06:46:31.290Z,692.00
2022-11-03T06:47:31.281Z,708.00
2022-11-03T06:48:31.268Z,732.00
2022-11-03T06:49:31.259Z,756.00
2022-11-03T06:50:31.250Z,784.00
2022-11-03T06:51:31.239Z,812.00
2022-11-03T06:52:31.229Z,836.00
2022-11-03T06:53:31.216Z,868.00
2022-11-03T06:54:31.205Z,912.00
2022-11-03T06:55:31.207Z,956.00
2022-11-03T06:56:31.185Z,1000.00
2022-11-03T06:57:31.176Z,1020.00
2022-11-03T06:58:31.166Z,1032.00
2022-11-03T06:59:31.155Z,1028.00
2022-11-03T07:00:36.171Z,1052.00
2022-11-03T07:01:31.316Z,1084.00
2022-11-03T07:02:31.217Z,1120.00
2022-11-03T07:03:31.115Z,1164.00
2022-11-03T07:04:31.103Z,1188.00
2022-11-03T07:05:31.090Z,1212.00
2022-11-03T07:06:31.080Z,1240.00
2022-11-03T07:07:31.067Z,1276.00
2022-11-03T07:08:31.064Z,1296.00
2022-11-03T07:09:31.051Z,1312.00
2022-11-03T07:10:31.043Z,1336.00
2022-11-03T07:11:31.032Z,1368.00
2022-11-03T07:12:31.021Z,1400.00
2022-11-03T07:13:31.009Z,1440.00
2022-11-03T07:14:30.999Z,1472.00
2022-11-03T07:15:30.990Z,1500.00
2022-11-03T07:16:30.978Z,1528.00
2022-11-03T07:17:30.968Z,1560.00
2022-11-03T07:18:30.959Z,1592.00
2022-11-03T07:19:30.950Z,1620.00
2022-11-03T07:20:30.942Z,1648.00
2022-11-03T07:21:30.929Z,1672.00
2022-11-03T07:22:30.920Z,1704.00
2022-11-03T07:23:30.910Z,1736.00
2022-11-03T07:24:30.898Z,1764.00
2022-11-03T07:25:30.890Z,1796.00
2022-11-03T07:26:30.892Z,1848.00
2022-11-03T07:27:30.867Z,1900.00
2022-11-03T07:28:30.859Z,1936.00
2022-11-03T07:29:30.852Z,1956.00
2022-11-03T07:30:30.836Z,1972.00
2022-11-03T07:31:30.833Z,1984.00
2022-11-03T07:32:30.945Z,1984.00
2022-11-03T07:33:30.807Z,1992.00
2022-11-03T07:34:30.796Z,1992.00
2022-11-03T07:35:47.032Z,2000.00
2022-11-03T07:36:30.808Z,2020.00
2022-11-03T07:37:30.770Z,2032.00
2022-11-03T07:38:30.762Z,2024.00
2022-11-03T07:39:30.750Z,2048.00
2022-11-03T07:40:30.737Z,2056.00
2022-11-03T07:41:34.070Z,2064.00
2022-11-03T07:42:30.724Z,2080.00
2022-11-03T07:43:30.708Z,2120.00
2022-11-03T07:44:30.695Z,2152.00
2022-11-03T07:45:30.689Z,2164.00
2022-11-03T07:46:30.699Z,2172.00
2022-11-03T07:47:30.672Z,2156.00
2022-11-03T07:48:30.659Z,2128.00
2022-11-03T07:49:30.653Z,2132.00
2022-11-03T07:50:30.643Z,2120.00
2022-11-03T07:51:30.630Z,2108.00
2022-11-03T07:52:30.620Z,2140.00
2022-11-03T07:53:30.609Z,2152.00
2022-11-03T07:54:30.602Z,2172.00
2022-11-03T07:55:30.592Z,2176.00
2022-11-03T07:56:30.666Z,2180.00
2022-11-03T07:57:30.580Z,2172.00
2022-11-03T07:58:30.562Z,2140.00
2022-11-03T07:59:30.555Z,2136.00
2022-11-03T08:00:30.545Z,2132.00
2022-11-03T08:01:30.688Z,2088.00
2022-11-03T08:02:30.613Z,2052.00
2022-11-03T08:03:30.517Z,2008.00
2022-11-03T08:04:30.505Z,1968.00
2022-11-03T08:05:30.503Z,1940.00
2022-11-03T08:06:30.490Z,1920.00
2022-11-03T08:07:30.480Z,1932.00
2022-11-03T08:08:30.469Z,1964.00
2022-11-03T08:09:30.459Z,1988.00
2022-11-03T08:10:30.450Z,2004.00
2022-11-03T08:11:30.440Z,2016.00
2022-11-03T08:12:30.431Z,2028.00
2022-11-03T08:13:30.418Z,2032.00
2022-11-03T08:14:30.414Z,2056.00
2022-11-03T08:15:30.404Z,2088.00
2022-11-03T08:16:30.394Z,2108.00
2022-11-03T08:17:30.383Z,2140.00
2022-11-03T08:18:30.373Z,2164.00
2022-11-03T08:19:30.366Z,2180.00
2022-11-03T08:20:30.355Z,2228.00
2022-11-03T08:21:30.349Z,2244.00
2022-11-03T08:22:30.387Z,2256.00
2022-11-03T08:23:30.563Z,2264.00
2022-11-03T08:24:30.322Z,2256.00
2022-11-03T08:25:30.342Z,2256.00
2022-11-03T08:26:30.312Z,2264.00
2022-11-03T08:27:30.292Z,2288.00
2022-11-03T08:28:30.282Z,2292.00
2022-11-03T08:29:30.277Z,2204.00
2022-11-03T08:30:30.266Z,2276.00
2022-11-03T08:31:30.273Z,2252.00
2022-11-03T08:32:30.660Z,2220.00
2022-11-03T08:33:30.287Z,2188.00
2022-11-03T08:34:30.229Z,2168.00
2022-11-03T08:35:33.141Z,2128.00
2022-11-03T08:36:30.206Z,2112.00
2022-11-03T08:37:30.202Z,2080.00
2022-11-03T08:38:30.187Z,2040.00
2022-11-03T08:39:30.181Z,1992.00
2022-11-03T08:40:30.175Z,1960.00
2022-11-03T08:41:30.162Z,1944.00
2022-11-03T08:42:30.153Z,1928.00
2022-11-03T08:43:30.144Z,1904.00
2022-11-03T08:44:30.136Z,1888.00
2022-11-03T08:45:30.368Z,1884.00
2022-11-03T08:46:30.121Z,1864.00
2022-11-03T08:47:30.123Z,1836.00
2022-11-03T08:48:30.107Z,1784.00
2022-11-03T08:49:30.090Z,1764.00
2022-11-03T08:50:30.097Z,1772.00
2022-11-03T08:51:30.070Z,1776.00
2022-11-03T08:52:30.065Z,1800.00
2022-11-03T08:53:30.053Z,1832.00
2022-11-03T08:54:30.054Z,1840.00
2022-11-03T08:55:30.036Z,1840.00
2022-11-03T08:56:30.026Z,1872.00
2022-11-03T08:57:30.019Z,1876.00
2022-11-03T08:58:30.009Z,1856.00
2022-11-03T08:59:30.001Z,1880.00
2022-11-03T09:00:29.997Z,1912.00
2022-11-03T09:01:30.047Z,1916.00
2022-11-03T09:02:30.028Z,1924.00
2022-11-03T09:03:30.020Z,1896.00
2022-11-03T09:04:29.955Z,1912.00
2022-11-03T09:05:29.944Z,1928.00
2022-11-03T09:06:29.937Z,1968.00
2022-11-03T09:10:33.420Z,2076.00
2022-11-03T09:11:29.895Z,2084.00
2022-11-03T09:12:29.883Z,2092.00
2022-11-03T09:13:29.880Z,2088.00
2022-11-03T09:14:29.866Z,2092.00
2022-11-03T09:15:29.897Z,2084.00
2022-11-03T09:16:29.846Z,2096.00
2022-11-03T09:17:29.843Z,2120.00
2022-11-03T09:18:29.831Z,2136.00
2022-11-03T09:19:29.902Z,2180.00
2022-11-03T09:20:29.820Z,2192.00
2022-11-03T09:21:29.807Z,2192.00
2022-11-03T09:22:29.800Z,2196.00
2022-11-03T09:23:29.789Z,2180.00
2022-11-03T09:24:29.777Z,2204.00
2022-11-03T09:25:29.811Z,2196.00
2022-11-03T09:26:29.781Z,2208.00
2022-11-03T09:27:29.756Z,2200.00
2022-11-03T09:28:29.747Z,2224.00
2022-11-03T09:29:36.341Z,2212.00
2022-11-03T09:30:29.729Z,2172.00
2022-11-03T09:31:29.719Z,2132.00
2022-11-03T09:32:29.708Z,2084.00
2022-11-03T09:33:29.702Z,2056.00
2022-11-03T09:34:29.710Z,2068.00
2022-11-03T09:35:29.682Z,2084.00
2022-11-03T09:36:29.673Z,2120.00
2022-11-03T09:37:29.670Z,2172.00
2022-11-03T09:38:29.659Z,2220.00
2022-11-03T09:39:29.664Z,2276.00
2022-11-03T09:40:29.643Z,2332.00
2022-11-03T09:41:53.662Z,2380.00
2022-11-03T09:42:29.630Z,2400.00
2022-11-03T09:43:29.617Z,2428.00
2022-11-03T09:44:29.651Z,2456.00
2022-11-03T09:45:29.601Z,2448.00
2022-11-03T09:46:29.592Z,2452.00
2022-11-03T09:47:29.585Z,2472.00
2022-11-03T09:48:29.575Z,2500.00
2022-11-03T09:49:29.570Z,2536.00
2022-11-03T09:50:29.556Z,2524.00
2022-11-03T09:51:29.558Z,2544.00
2022-11-03T09:52:29.565Z,2532.00
2022-11-03T09:53:29.570Z,2524.00
2022-11-03T09:54:29.580Z,2528.00
2022-11-03T09:55:29.549Z,2528.00
2022-11-03T09:56:29.654Z,2540.00
2022-11-03T09:57:29.567Z,2548.00
2022-11-03T09:58:29.574Z,2560.00
2022-11-03T09:59:29.507Z,2580.00
2022-11-03T10:00:29.528Z,2592.00
2022-11-03T10:01:29.688Z,2624.00
2022-11-03T10:02:29.523Z,2644.00
2022-11-03T10:03:29.456Z,2656.00
2022-11-03T10:04:29.466Z,2660.00
2022-11-03T10:05:29.467Z,2664.00
2022-11-03T10:06:29.472Z,2656.00
2022-11-03T10:07:29.481Z,2664.00
2022-11-03T10:08:29.411Z,2692.00
2022-11-03T10:09:29.494Z,2696.00
2022-11-03T10:10:29.398Z,2728.00
2022-11-03T10:11:29.395Z,2748.00
2022-11-03T10:12:29.381Z,2800.00
2022-11-03T10:13:29.372Z,2852.00
2022-11-03T10:14:29.367Z,2892.00
2022-11-03T10:15:29.357Z,2916.00
2022-11-03T10:16:29.354Z,2948.00
2022-11-03T10:17:29.338Z,2972.00
2022-11-03T10:18:29.330Z,3004.00
2022-11-03T10:19:29.768Z,3024.00
2022-11-03T10:20:29.315Z,3088.00
2022-11-03T10:21:29.308Z,3148.00
2022-11-03T10:22:29.302Z,3192.00
2022-11-03T10:23:29.296Z,3204.00
2022-11-03T10:24:29.286Z,3200.00
2022-11-03T10:25:29.288Z,3216.00
2022-11-03T10:26:29.272Z,3224.00
2022-11-03T10:27:29.264Z,3216.00
2022-11-03T10:28:29.256Z,3208.00
2022-11-03T10:29:29.249Z,3204.00
2022-11-03T10:30:29.767Z,3184.00
2022-11-03T10:31:29.246Z,3180.00
2022-11-03T10:32:29.228Z,3192.00
2022-11-03T10:33:29.220Z,3196.00
2022-11-03T10:34:29.212Z,3200.00
2022-11-03T10:35:29.202Z,3212.00
2022-11-03T10:36:29.195Z,3236.00
2022-11-03T10:37:29.226Z,3260.00
2022-11-03T10:38:29.201Z,3288.00
2022-11-03T10:39:29.174Z,3320.00
2022-11-03T10:40:47.283Z,3348.00
2022-11-03T10:41:29.165Z,3360.00
2022-11-03T10:42:34.595Z,3380.00
2022-11-03T10:43:29.142Z,3404.00
2022-11-03T10:44:29.142Z,3424.00
2022-11-03T10:45:29.132Z,3440.00
2022-11-03T10:47:29.131Z,3448.00
2022-11-03T10:48:29.106Z,3432.00
2022-11-03T10:49:29.103Z,3420.00
2022-11-03T10:50:29.111Z,3416.00
2022-11-03T10:51:29.098Z,3432.00
2022-11-03T10:52:29.111Z,3476.00
2022-11-03T10:53:29.077Z,3512.00
2022-11-03T10:54:29.069Z,3524.00
2022-11-03T10:55:29.095Z,3552.00
2022-11-03T10:56:29.054Z,3560.00
2022-11-03T10:57:29.044Z,3572.00
2022-11-03T10:58:29.037Z,3588.00
2022-11-03T10:59:29.029Z,3620.00
2022-11-03T11:00:29.022Z,3664.00
2022-11-03T11:01:29.280Z,3704.00
2022-11-03T11:02:29.148Z,3744.00
2022-11-03T11:03:29.000Z,3800.00
2022-11-03T11:04:29.017Z,3856.00
2022-11-03T11:05:28.988Z,3892.00
2022-11-03T11:06:29.005Z,3904.00
2022-11-03T11:07:28.975Z,3900.00
2022-11-03T11:08:29.010Z,3880.00
2022-11-03T11:09:28.969Z,3852.00
2022-11-03T11:10:28.954Z,3828.00
2022-11-03T11:11:28.942Z,3824.00
2022-11-03T11:12:28.939Z,3812.00
2022-11-03T11:13:28.932Z,3796.00
2022-11-03T11:14:28.963Z,3780.00
2022-11-03T11:15:28.934Z,3768.00
2022-11-03T11:16:28.908Z,3780.00
2022-11-03T11:17:28.902Z,3804.00
2022-11-03T11:18:28.919Z,3852.00
2022-11-03T11:19:28.897Z,3944.00
2022-11-03T11:20:28.883Z,4032.00
2022-11-03T11:21:30.779Z,4092.00
2022-11-03T11:22:28.867Z,4108.00
2022-11-03T11:23:28.883Z,4088.00
2022-11-03T11:24:28.856Z,4052.00
2022-11-03T11:25:28.883Z,4020.00
2022-11-03T11:26:28.842Z,4000.00
2022-11-03T11:27:28.840Z,3984.00
2022-11-03T11:28:28.827Z,3968.00
2022-11-03T11:29:28.816Z,3944.00
2022-11-03T11:30:28.820Z,3924.00
2022-11-03T11:31:28.815Z,3900.00
2022-11-03T11:32:28.802Z,3876.00
2022-11-03T11:33:28.792Z,3848.00
2022-11-03T11:34:28.789Z,3828.00
2022-11-03T11:35:28.824Z,3812.00
2022-11-03T11:36:28.858Z,3772.00
2022-11-03T11:37:28.769Z,3720.00
2022-11-03T11:38:28.762Z,3676.00
2022-11-03T11:39:28.765Z,3652.00
2022-11-03T11:40:28.757Z,3636.00
2022-11-03T11:41:28.744Z,3620.00
2022-11-03T11:42:30.482Z,3600.00
2022-11-03T11:43:28.737Z,3572.00
2022-11-03T11:44:28.724Z,3544.00
2022-11-03T11:45:28.715Z,3508.00
2022-11-03T11:46:28.709Z,3456.00
2022-11-03T11:47:28.700Z,3392.00
2022-11-03T11:48:28.700Z,3328.00
2022-11-03T11:49:28.690Z,3288.00
2022-11-03T11:50:28.691Z,3260.00
2022-11-03T11:51:28.677Z,3252.00
2022-11-03T11:52:28.691Z,3256.00
2022-11-03T11:53:31.861Z,3272.00
2022-11-03T11:54:28.658Z,3300.00
2022-11-03T11:55:28.666Z,3332.00
2022-11-03T11:56:28.643Z,3356.00
2022-11-03T11:57:28.639Z,3364.00
2022-11-03T11:58:28.632Z,3348.00
2022-11-03T11:59:28.626Z,3308.00
2022-11-03T12:00:28.617Z,3252.00
2022-11-03T12:01:28.696Z,3196.00
2022-11-03T12:02:28.605Z,3160.00
2022-11-03T12:03:28.642Z,3132.00
2022-11-03T12:04:28.592Z,3120.00
2022-11-03T12:05:28.587Z,3096.00
2022-11-03T12:06:28.633Z,3076.00
2022-11-03T12:07:28.573Z,3060.00
2022-11-03T12:08:28.567Z,3060.00
2022-11-03T12:09:28.557Z,3068.00
2022-11-03T12:10:28.551Z,3064.00
2022-11-03T12:11:28.570Z,3056.00
2022-11-03T12:12:28.543Z,3036.00
2022-11-03T12:13:28.533Z,3004.00
2022-11-03T12:14:28.526Z,2976.00
2022-11-03T12:15:28.522Z,2956.00
2022-11-03T12:16:28.515Z,2944.00
2022-11-03T12:17:28.506Z,2936.00
2022-11-03T12:18:28.501Z,2920.00
2022-11-03T12:19:28.498Z,2896.00
2022-11-03T12:20:28.494Z,2868.00
2022-11-03T12:21:28.481Z,2836.00
2022-11-03T12:22:28.478Z,2796.00
2022-11-03T12:23:28.471Z,2768.00
2022-11-03T12:24:28.458Z,2736.00
2022-11-03T12:25:28.454Z,2712.00
2022-11-03T12:26:28.449Z,2696.00
2022-11-03T12:27:28.441Z,2696.00
2022-11-03T12:28:28.436Z,2696.00
2022-11-03T12:29:28.429Z,2708.00
2022-11-03T12:30:28.422Z,2732.00
2022-11-03T12:31:31.676Z,2736.00
2022-11-03T12:32:35.574Z,2724.00
2022-11-03T12:33:28.413Z,2720.00
2022-11-03T12:34:28.397Z,2712.00
2022-11-03T12:35:28.392Z,2708.00
2022-11-03T12:36:28.384Z,2712.00
2022-11-03T12:37:28.379Z,2728.00
2022-11-03T12:38:28.393Z,2752.00
2022-11-03T12:39:28.366Z,2784.00
2022-11-03T12:40:28.355Z,2816.00
2022-11-03T12:41:28.352Z,2848.00
2022-11-03T12:42:28.348Z,2876.00
2022-11-03T12:43:28.337Z,2884.00
2022-11-03T12:44:28.435Z,2892.00